Time;durP1;ratioP1;P1;durP2;ratioP2;P2;SDS_P1;SDS_P2;PMS_P1;PMS_P2;Temp;Humidity;BMP_temperature;BMP_pressure;BME280_temperature;BME280_humidity;BME280_pressure;Samples;Min_cycle;Max_cycle;Signal;HPM_P1;HPM_P2
2021/09/21 00:01:04;;;;;;;12.33;11.30;;;17.00;99.90;;;;;;10475430;28;20212;-86
2021/09/21 00:06:08;;;;;;;12.00;11.07;;;17.00;99.90;;;;;;10476486;28;20369;-86
2021/09/21 00:11:11;;;;;;;12.50;11.40;;;16.90;99.90;;;;;;10493161;28;20280;-86
2021/09/21 00:16:14;;;;;;;14.50;12.53;;;16.90;99.90;;;;;;10493228;28;20707;-86
2021/09/21 00:21:17;;;;;;;13.47;12.37;;;16.90;99.90;;;;;;10476357;28;20227;-86
2021/09/21 00:26:20;;;;;;;12.73;11.73;;;16.90;99.90;;;;;;10476592;28;20223;-87
2021/09/21 00:31:22;;;;;;;13.10;11.77;;;16.90;99.90;;;;;;10476585;28;20196;-86
2021/09/21 00:36:26;;;;;;;13.90;12.80;;;16.90;99.90;;;;;;10468008;28;20646;-86
2021/09/21 00:41:29;;;;;;;12.47;11.47;;;16.90;99.90;;;;;;10446590;28;20283;-86
2021/09/21 00:46:34;;;;;;;13.97;12.67;;;16.90;99.90;;;;;;10450904;28;20193;-86
2021/09/21 00:51:38;;;;;;;13.13;12.03;;;16.90;99.90;;;;;;10434059;28;20219;-86
2021/09/21 00:56:41;;;;;;;13.53;12.23;;;16.80;99.90;;;;;;10468476;28;20551;-86
2021/09/21 01:01:44;;;;;;;12.93;11.77;;;16.80;99.90;;;;;;10487437;28;20240;-87
2021/09/21 01:06:47;;;;;;;13.20;12.03;;;16.80;99.90;;;;;;10490986;28;20209;-87
2021/09/21 01:11:52;;;;;;;12.87;11.87;;;16.80;99.90;;;;;;10492315;28;20240;-86
2021/09/21 01:16:56;;;;;;;13.77;12.43;;;16.80;99.90;;;;;;10477872;28;20199;-86
2021/09/21 01:22:00;;;;;;;13.70;12.60;;;16.80;99.90;;;;;;10482400;28;20283;-86
2021/09/21 01:27:02;;;;;;;12.40;11.50;;;16.70;99.90;;;;;;10482718;28;20193;-86
2021/09/21 01:32:39;;;;;;;12.63;11.53;;;16.70;99.90;;;;;;10514868;22;21206;-83
2021/09/21 01:38:28;;;;;;;13.47;12.37;;;16.70;99.90;;;;;;10459370;28;20304;-83
2021/09/21 01:43:31;;;;;;;12.77;11.77;;;16.70;99.90;;;;;;10440987;28;20217;-83
2021/09/21 01:48:43;;;;;;;13.13;11.97;;;16.70;99.90;;;;;;10502206;28;20200;-85
2021/09/21 01:53:57;;;;;;;12.20;11.30;;;16.60;99.90;;;;;;10523506;28;20211;-83
2021/09/21 01:59:00;;;;;;;13.60;12.50;;;16.60;99.90;;;;;;10522974;28;20270;-83
2021/09/21 02:04:07;;;;;;;13.13;12.10;;;16.60;99.90;;;;;;10522857;28;20569;-83
2021/09/21 02:09:13;;;;;;;12.70;11.60;;;16.60;99.90;;;;;;10549890;28;20198;-83
2021/09/21 02:14:17;;;;;;;13.37;12.33;;;16.60;99.90;;;;;;10566582;28;20691;-83
2021/09/21 02:19:19;;;;;;;13.90;12.73;;;16.60;99.90;;;;;;10535004;28;20223;-83
2021/09/21 02:24:23;;;;;;;12.37;11.40;;;16.60;99.90;;;;;;10543081;28;20213;-83
2021/09/21 02:29:26;;;;;;;13.13;11.83;;;16.60;99.90;;;;;;10540508;28;20286;-83
2021/09/21 02:34:28;;;;;;;13.10;12.10;;;16.60;99.90;;;;;;10454870;28;20319;-83
2021/09/21 02:39:32;;;;;;;13.43;12.33;;;16.60;99.90;;;;;;10462432;28;20726;-83
2021/09/21 02:44:34;;;;;;;13.73;12.53;;;16.60;99.90;;;;;;10520424;28;20216;-83
2021/09/21 02:49:37;;;;;;;13.17;12.07;;;16.60;99.90;;;;;;10516219;28;20288;-85
2021/09/21 02:54:40;;;;;;;12.90;11.90;;;16.60;99.90;;;;;;10517513;28;20255;-86
2021/09/21 02:59:42;;;;;;;12.60;11.40;;;16.60;99.90;;;;;;10522978;28;20204;-85
2021/09/21 03:04:52;;;;;;;13.37;12.27;;;16.60;99.90;;;;;;10569306;28;20207;-83
2021/09/21 03:10:06;;;;;;;12.40;11.40;;;16.60;99.90;;;;;;10562256;28;20188;-85
2021/09/21 03:20:29;;;;;;;13.43;12.33;;;16.50;99.90;;;;;;10534635;28;20223;-83
2021/09/21 03:25:33;;;;;;;13.90;12.80;;;16.50;99.90;;;;;;10530399;28;20686;-85
2021/09/21 03:30:35;;;;;;;13.10;12.00;;;16.50;99.90;;;;;;10523715;28;20277;-85
2021/09/21 03:35:37;;;;;;;13.07;11.97;;;16.40;99.90;;;;;;10502865;28;20270;-85
2021/09/21 03:40:41;;;;;;;13.70;12.50;;;16.40;99.90;;;;;;10497248;28;20307;-85
2021/09/21 03:45:43;;;;;;;13.57;12.47;;;16.40;99.90;;;;;;10485058;28;20216;-85
2021/09/21 03:50:45;;;;;;;14.10;12.80;;;16.40;99.90;;;;;;10499830;28;20196;-85
2021/09/21 03:55:49;;;;;;;13.10;12.00;;;16.30;99.90;;;;;;10490429;28;20216;-85
2021/09/21 04:00:52;;;;;;;12.43;11.47;;;16.30;99.90;;;;;;10508465;28;20224;-85
2021/09/21 04:05:55;;;;;;;13.30;12.30;;;16.30;99.90;;;;;;10536011;28;20617;-85
2021/09/21 04:10:58;;;;;;;13.17;12.17;;;16.30;99.90;;;;;;10522450;28;20678;-85
2021/09/21 04:16:01;;;;;;;13.53;11.87;;;16.30;99.90;;;;;;10491167;28;20220;-85
2021/09/21 04:21:03;;;;;;;14.33;13.03;;;16.30;99.90;;;;;;10478674;28;20254;-84
2021/09/21 04:26:07;;;;;;;12.87;11.67;;;16.20;99.90;;;;;;10497282;28;20254;-85
2021/09/21 04:31:10;;;;;;;13.60;12.30;;;16.20;99.90;;;;;;10498693;28;20187;-84
2021/09/21 04:36:13;;;;;;;14.40;11.40;;;16.20;99.90;;;;;;10496388;28;20295;-83
2021/09/21 04:41:17;;;;;;;14.00;12.80;;;16.10;99.90;;;;;;10479763;28;20224;-85
2021/09/21 04:46:19;;;;;;;13.97;12.80;;;16.00;99.90;;;;;;10480935;28;20677;-86
2021/09/21 04:51:21;;;;;;;13.43;12.33;;;16.00;99.90;;;;;;10497626;28;20193;-86
2021/09/21 04:56:25;;;;;;;13.67;12.57;;;16.00;99.90;;;;;;10485706;28;20217;-86
2021/09/21 05:01:27;;;;;;;14.03;12.73;;;16.00;99.90;;;;;;10504714;28;20203;-85
2021/09/21 05:06:29;;;;;;;12.70;11.70;;;16.00;99.90;;;;;;10500467;28;20679;-87
2021/09/21 05:11:33;;;;;;;12.13;11.17;;;16.00;99.90;;;;;;10501213;28;20322;-86
2021/09/21 05:16:35;;;;;;;13.20;12.07;;;16.00;99.90;;;;;;10500798;28;20277;-86
2021/09/21 05:21:37;;;;;;;12.10;11.17;;;16.00;99.90;;;;;;10494491;28;20216;-86
2021/09/21 05:26:41;;;;;;;11.70;10.73;;;16.00;99.90;;;;;;10485860;28;20244;-86
2021/09/21 05:31:43;;;;;;;12.50;11.50;;;15.90;99.90;;;;;;10503003;28;20195;-87
2021/09/21 05:36:45;;;;;;;13.50;12.40;;;16.00;99.90;;;;;;10526584;28;20200;-86
2021/09/21 05:41:49;;;;;;;12.90;11.80;;;16.00;99.90;;;;;;10542413;28;20709;-86
2021/09/21 05:46:51;;;;;;;11.67;10.77;;;16.00;99.90;;;;;;10548136;28;20226;-86
2021/09/21 05:51:53;;;;;;;12.53;11.53;;;16.00;99.90;;;;;;10526038;28;20652;-86
2021/09/21 05:56:57;;;;;;;12.30;11.20;;;16.00;99.90;;;;;;10525488;28;20196;-86
2021/09/21 06:01:59;;;;;;;12.10;11.10;;;16.00;99.90;;;;;;10525218;28;20223;-86
2021/09/21 06:07:01;;;;;;;12.10;10.90;;;16.00;99.90;;;;;;10525686;28;20188;-86
2021/09/21 06:12:05;;;;;;;12.50;11.50;;;16.00;99.90;;;;;;10544237;28;20210;-86
2021/09/21 06:17:10;;;;;;;12.20;11.10;;;16.00;99.90;;;;;;10558688;28;20252;-90
2021/09/21 06:22:13;;;;;;;12.50;11.40;;;15.90;99.90;;;;;;10539754;28;20228;-84
2021/09/21 06:27:17;;;;;;;14.67;13.43;;;15.90;99.90;;;;;;10535973;28;20237;-84
2021/09/21 06:32:19;;;;;;;12.23;11.33;;;15.80;99.90;;;;;;10504574;28;20224;-85
2021/09/21 06:37:21;;;;;;;12.23;11.13;;;15.80;99.90;;;;;;10510874;28;20191;-85
2021/09/21 06:42:25;;;;;;;15.07;13.77;;;15.80;99.90;;;;;;10493780;28;20232;-85
2021/09/21 06:47:27;;;;;;;13.10;12.10;;;15.70;99.90;;;;;;10509877;28;20227;-85
2021/09/21 06:52:33;;;;;;;11.97;11.03;;;15.70;99.90;;;;;;10500032;28;20628;-85
2021/09/21 06:57:37;;;;;;;12.03;11.13;;;15.70;99.90;;;;;;10516692;28;20192;-85
2021/09/21 07:02:42;;;;;;;12.90;11.90;;;15.70;99.90;;;;;;10504013;28;20228;-85
2021/09/21 07:07:48;;;;;;;13.17;11.97;;;15.70;99.90;;;;;;10501480;28;20260;-84
2021/09/21 07:12:52;;;;;;;11.93;11.03;;;15.70;99.90;;;;;;10520399;28;20208;-85
2021/09/21 07:17:55;;;;;;;12.77;11.77;;;15.70;99.90;;;;;;10511965;28;20193;-85
2021/09/21 07:22:58;;;;;;;12.87;11.77;;;15.70;99.90;;;;;;10513185;28;20225;-84
2021/09/21 07:28:02;;;;;;;12.90;11.80;;;15.70;99.90;;;;;;10515551;28;20198;-86
2021/09/21 07:33:06;;;;;;;11.37;10.20;;;15.80;99.90;;;;;;10500039;28;20710;-85
2021/09/21 07:38:08;;;;;;;11.80;10.80;;;15.90;99.90;;;;;;10499229;28;20255;-85
2021/09/21 07:43:12;;;;;;;10.60;9.80;;;16.10;99.90;;;;;;10496772;28;20264;-85
2021/09/21 07:48:18;;;;;;;11.57;10.67;;;16.30;99.90;;;;;;10496767;28;20207;-85
2021/09/21 07:53:20;;;;;;;12.23;11.13;;;16.50;99.90;;;;;;10500906;28;20220;-85
2021/09/21 07:58:23;;;;;;;11.00;10.20;;;16.70;99.90;;;;;;10497639;28;20224;-85
2021/09/21 08:03:26;;;;;;;10.93;10.13;;;16.90;99.90;;;;;;10531987;28;20295;-86
2021/09/21 08:08:28;;;;;;;11.53;10.63;;;17.10;99.90;;;;;;10546002;28;20199;-85
2021/09/21 08:13:31;;;;;;;10.37;9.67;;;17.20;99.90;;;;;;10562565;28;20269;-85
2021/09/21 08:18:33;;;;;;;14.00;10.80;;;17.20;99.90;;;;;;10541835;28;20643;-85
2021/09/21 08:23:36;;;;;;;11.00;10.10;;;17.30;99.90;;;;;;10551774;28;20216;-85
2021/09/21 08:28:39;;;;;;;9.73;9.03;;;17.40;99.90;;;;;;10540313;28;20225;-86
2021/09/21 08:33:42;;;;;;;9.83;9.13;;;17.40;99.90;;;;;;10520593;28;20232;-86
2021/09/21 08:38:44;;;;;;;9.53;8.73;;;17.30;99.90;;;;;;10515757;28;20234;-86
2021/09/21 08:43:47;;;;;;;9.80;8.70;;;17.30;99.90;;;;;;10498708;28;20240;-86
2021/09/21 08:48:50;;;;;;;8.90;8.20;;;17.20;99.90;;;;;;10498138;28;20188;-86
2021/09/21 08:53:52;;;;;;;7.60;7.10;;;17.10;99.90;;;;;;10496400;28;20288;-86
2021/09/21 08:59:01;;;;;;;8.47;7.70;;;17.00;99.90;;;;;;10515600;28;20205;-86
2021/09/21 09:04:03;;;;;;;8.30;7.47;;;16.90;98.80;;;;;;10499300;28;20247;-86
2021/09/21 09:09:11;;;;;;;8.87;8.17;;;16.80;99.90;;;;;;10493026;28;20203;-86
2021/09/21 09:14:20;;;;;;;8.17;7.60;;;16.90;99.90;;;;;;10499170;28;20264;-86
2021/09/21 09:19:30;;;;;;;8.03;7.50;;;17.10;99.90;;;;;;10525412;28;20218;-86
2021/09/21 09:24:32;;;;;;;8.60;7.90;;;17.60;99.90;;;;;;10550978;28;20228;-86
2021/09/21 09:29:36;;;;;;;8.23;7.63;;;17.90;99.90;;;;;;10527400;28;20196;-85
2021/09/21 09:34:42;;;;;;;8.20;7.50;;;17.80;99.90;;;;;;10508404;28;20700;-85
2021/09/21 09:39:47;;;;;;;8.53;7.83;;;17.80;99.90;;;;;;10505443;28;20706;-86
2021/09/21 09:44:50;;;;;;;8.50;7.90;;;17.80;99.90;;;;;;10492115;28;20299;-85
2021/09/21 09:49:53;;;;;;;8.47;7.77;;;18.00;99.90;;;;;;10506571;28;20189;-85
2021/09/21 09:54:55;;;;;;;8.60;7.90;;;18.10;98.50;;;;;;10510028;28;20212;-86
2021/09/21 10:00:00;;;;;;;8.80;8.10;;;18.10;99.90;;;;;;10527893;28;20217;-86
2021/09/21 10:05:03;;;;;;;8.87;8.07;;;18.30;99.90;;;;;;10493416;28;20688;-85
2021/09/21 10:10:06;;;;;;;9.10;8.37;;;18.20;99.10;;;;;;10494835;28;20217;-85
2021/09/21 10:15:11;;;;;;;8.53;7.93;;;18.10;99.00;;;;;;10496504;28;20220;-86
2021/09/21 10:20:14;;;;;;;9.27;8.67;;;17.90;99.90;;;;;;10498212;28;20216;-86
2021/09/21 10:25:16;;;;;;;8.50;7.90;;;17.80;99.90;;;;;;10498454;28;20228;-85
2021/09/21 10:30:24;;;;;;;9.57;8.87;;;17.70;99.00;;;;;;10514709;28;20195;-86
2021/09/21 10:35:31;;;;;;;9.97;9.10;;;17.60;99.90;;;;;;10514150;28;20212;-86
2021/09/21 10:40:41;;;;;;;8.90;7.77;;;17.50;99.90;;;;;;10502723;28;20212;-86
2021/09/21 10:45:45;;;;;;;8.87;8.27;;;17.50;99.90;;;;;;10488614;28;20216;-86
2021/09/21 10:50:55;;;;;;;8.47;7.77;;;17.60;99.90;;;;;;10506149;28;20193;-86
2021/09/21 10:56:02;;;;;;;8.70;8.07;;;17.60;99.70;;;;;;10506067;28;20213;-85
2021/09/21 11:01:08;;;;;;;7.93;7.33;;;17.80;99.90;;;;;;10487409;28;20246;-86
2021/09/21 11:06:12;;;;;;;8.13;7.50;;;18.00;99.90;;;;;;10486929;28;20227;-86
2021/09/21 11:11:14;;;;;;;7.90;7.20;;;18.10;98.10;;;;;;10482483;28;20613;-86
2021/09/21 11:16:20;;;;;;;8.30;7.60;;;18.10;99.90;;;;;;10486371;28;20636;-86
2021/09/21 11:21:22;;;;;;;7.37;6.77;;;18.30;99.90;;;;;;10488073;28;20213;-86
2021/09/21 11:26:24;;;;;;;8.10;7.50;;;18.50;99.90;;;;;;10486276;28;20215;-86
2021/09/21 11:31:28;;;;;;;7.73;7.20;;;18.80;99.90;;;;;;10485657;28;20671;-86
2021/09/21 11:36:32;;;;;;;8.37;7.77;;;19.00;97.40;;;;;;10487346;28;20224;-86
2021/09/21 11:41:34;;;;;;;8.07;7.50;;;19.20;98.20;;;;;;10484786;28;20218;-86
2021/09/21 11:46:38;;;;;;;8.07;7.37;;;19.20;97.00;;;;;;10501380;28;20217;-85
2021/09/21 11:51:41;;;;;;;8.40;7.70;;;19.00;99.10;;;;;;10509994;28;20194;-86
2021/09/21 11:56:43;;;;;;;8.63;7.83;;;18.90;98.30;;;;;;10505098;28;20223;-86
2021/09/21 12:01:52;;;;;;;7.73;7.17;;;18.80;98.20;;;;;;10512144;28;20204;-86
2021/09/21 12:06:54;;;;;;;8.27;7.57;;;18.80;99.20;;;;;;10495196;28;20215;-86
2021/09/21 12:11:57;;;;;;;9.20;8.40;;;18.80;99.00;;;;;;10496818;28;20196;-86
2021/09/21 12:17:04;;;;;;;9.57;8.77;;;18.70;99.90;;;;;;10526349;28;20245;-86
2021/09/21 12:22:06;;;;;;;8.93;8.20;;;18.60;99.90;;;;;;10517495;28;20224;-86
2021/09/21 12:27:08;;;;;;;9.20;8.50;;;18.50;99.90;;;;;;10497395;28;20211;-86
2021/09/21 12:32:12;;;;;;;9.83;9.03;;;18.50;99.90;;;;;;10523621;28;20235;-87
2021/09/21 12:37:18;;;;;;;9.17;8.40;;;18.50;96.70;;;;;;10552905;28;20595;-86
2021/09/21 12:42:20;;;;;;;9.77;8.97;;;18.30;95.80;;;;;;10576614;28;20249;-87
2021/09/21 12:47:24;;;;;;;9.53;8.80;;;18.20;97.40;;;;;;10533658;28;20203;-86
2021/09/21 12:52:29;;;;;;;9.83;8.83;;;18.10;96.40;;;;;;10528415;28;20207;-86
2021/09/21 12:57:31;;;;;;;8.23;7.63;;;18.10;95.70;;;;;;10566122;28;20196;-86
2021/09/21 13:02:35;;;;;;;9.20;8.50;;;18.10;99.00;;;;;;10525664;28;20684;-86
2021/09/21 13:07:37;;;;;;;9.93;9.07;;;18.20;97.50;;;;;;10525113;28;20192;-86
2021/09/21 13:12:40;;;;;;;9.60;8.80;;;18.30;99.90;;;;;;10525784;28;20208;-87
2021/09/21 13:17:44;;;;;;;9.03;8.33;;;18.50;99.90;;;;;;10547083;28;20235;-86
2021/09/21 13:22:46;;;;;;;9.43;8.60;;;18.60;98.90;;;;;;10529984;28;20223;-86
2021/09/21 13:27:49;;;;;;;8.90;8.00;;;18.60;97.40;;;;;;10525719;28;20685;-86
2021/09/21 13:32:53;;;;;;;6.60;6.10;;;18.70;97.10;;;;;;10541614;22;20285;-85
2021/09/21 13:37:55;;;;;;;8.60;7.90;;;18.80;99.40;;;;;;10483136;28;20236;-85
2021/09/21 13:42:58;;;;;;;7.13;6.53;;;19.00;99.00;;;;;;10482581;28;20314;-84
2021/09/21 13:48:02;;;;;;;9.33;8.53;;;19.00;97.80;;;;;;10482921;28;20204;-84
2021/09/21 13:53:05;;;;;;;8.27;7.67;;;19.20;96.30;;;;;;10498968;28;20884;-85
2021/09/21 13:58:07;;;;;;;8.40;7.70;;;19.20;99.20;;;;;;10482502;28;20197;-84
2021/09/21 14:03:11;;;;;;;8.40;7.80;;;19.20;98.60;;;;;;10512149;28;20236;-84
2021/09/21 14:08:13;;;;;;;9.60;8.73;;;19.10;99.00;;;;;;10540381;28;20238;-85
2021/09/21 14:13:15;;;;;;;9.07;8.37;;;19.20;99.00;;;;;;10523623;28;20216;-85
2021/09/21 14:18:18;;;;;;;8.77;8.00;;;19.30;99.90;;;;;;10542576;28;20659;-84
2021/09/21 14:23:21;;;;;;;8.57;7.90;;;19.30;99.70;;;;;;10540010;28;20756;-85
2021/09/21 14:28:23;;;;;;;9.23;8.57;;;19.30;99.60;;;;;;10523264;28;20199;-84
2021/09/21 14:33:27;;;;;;;9.10;8.17;;;19.30;99.40;;;;;;10539249;28;20301;-84
2021/09/21 14:38:29;;;;;;;8.80;8.10;;;19.30;99.50;;;;;;10539970;28;20643;-85
2021/09/21 14:43:34;;;;;;;8.73;8.03;;;19.30;99.90;;;;;;10522190;28;20231;-85
2021/09/21 14:48:40;;;;;;;7.60;7.10;;;19.20;98.00;;;;;;10522332;28;20675;-84
2021/09/21 14:53:43;;;;;;;8.30;7.67;;;19.20;98.50;;;;;;10521938;28;20212;-83
2021/09/21 14:58:45;;;;;;;9.43;8.67;;;19.20;98.20;;;;;;10537454;28;20660;-85
2021/09/21 15:03:49;;;;;;;7.90;7.30;;;19.20;98.70;;;;;;10535960;28;20262;-85
2021/09/21 15:08:51;;;;;;;9.07;8.37;;;19.20;99.80;;;;;;10542222;28;20271;-85
2021/09/21 15:13:56;;;;;;;8.93;8.27;;;19.10;96.40;;;;;;10558939;28;20223;-84
2021/09/21 15:19:03;;;;;;;7.83;7.13;;;19.00;98.50;;;;;;10550423;28;20192;-85
2021/09/21 15:24:05;;;;;;;7.47;6.97;;;18.90;99.50;;;;;;10533861;28;20703;-83
2021/09/21 15:29:08;;;;;;;8.00;7.40;;;18.90;99.90;;;;;;10536327;28;20196;-84
2021/09/21 15:34:13;;;;;;;7.33;6.83;;;18.80;98.10;;;;;;10553307;28;20224;-84
2021/09/21 15:39:16;;;;;;;7.57;6.87;;;18.80;99.90;;;;;;10535715;28;20286;-85
2021/09/21 15:44:18;;;;;;;8.73;8.00;;;18.70;99.60;;;;;;10536618;28;20222;-85
2021/09/21 15:49:21;;;;;;;9.37;8.67;;;18.60;99.90;;;;;;10537889;28;20282;-84
2021/09/21 15:54:26;;;;;;;7.10;6.60;;;18.50;99.90;;;;;;10547403;28;20213;-84
2021/09/21 15:59:30;;;;;;;7.87;7.27;;;18.40;99.90;;;;;;10552453;28;20257;-84
2021/09/21 16:04:38;;;;;;;9.50;8.60;;;18.40;99.90;;;;;;10542732;28;20228;-85
2021/09/21 16:09:40;;;;;;;10.90;8.53;;;18.30;99.90;;;;;;10535759;28;20191;-85
2021/09/21 16:14:43;;;;;;;8.30;7.70;;;18.30;99.90;;;;;;10536548;28;20253;-84
2021/09/21 16:19:46;;;;;;;7.77;7.07;;;18.20;99.90;;;;;;10518336;28;20571;-84
2021/09/21 16:24:49;;;;;;;6.93;6.43;;;18.20;99.90;;;;;;10535123;28;20220;-85
2021/09/21 16:29:52;;;;;;;7.40;6.80;;;18.10;99.90;;;;;;10542119;28;20191;-84
2021/09/21 16:35:01;;;;;;;6.90;6.40;;;18.10;99.90;;;;;;10559330;28;20222;-84
2021/09/21 16:40:05;;;;;;;8.63;7.97;;;18.10;99.90;;;;;;10552257;28;20192;-84
2021/09/21 16:45:08;;;;;;;7.57;6.97;;;18.20;99.90;;;;;;10519221;28;20239;-84
2021/09/21 16:50:12;;;;;;;8.20;7.50;;;18.20;99.90;;;;;;10551709;28;20191;-84
2021/09/21 16:55:16;;;;;;;8.57;7.77;;;18.10;99.90;;;;;;10549372;28;20725;-85
2021/09/21 17:00:21;;;;;;;7.17;6.67;;;18.10;99.90;;;;;;10531850;28;20196;-84
2021/09/21 17:05:26;;;;;;;8.20;7.60;;;18.00;99.90;;;;;;10554105;28;20216;-84
2021/09/21 17:10:28;;;;;;;9.47;8.70;;;17.90;99.90;;;;;;10542671;28;20207;-84
2021/09/21 17:15:31;;;;;;;8.13;7.53;;;17.80;99.90;;;;;;10546412;28;20321;-85
2021/09/21 17:20:35;;;;;;;9.20;8.40;;;17.70;99.90;;;;;;10558223;28;20218;-85
2021/09/21 17:25:38;;;;;;;7.03;6.53;;;17.50;99.90;;;;;;10562965;28;20215;-85
2021/09/21 17:30:41;;;;;;;10.90;10.10;;;17.30;99.90;;;;;;10562463;28;20200;-85
2021/09/21 17:35:45;;;;;;;9.33;8.63;;;17.10;99.90;;;;;;10567335;28;20588;-84
2021/09/21 17:40:50;;;;;;;7.23;6.73;;;16.90;99.90;;;;;;10541557;28;20405;-85
2021/09/21 17:45:52;;;;;;;8.40;7.73;;;16.80;99.90;;;;;;10549122;28;20211;-85
2021/09/21 17:50:56;;;;;;;9.33;8.63;;;16.70;99.90;;;;;;10548310;28;20211;-85
2021/09/21 17:56:01;;;;;;;9.40;8.60;;;16.60;99.90;;;;;;10523005;28;20306;-84
2021/09/21 18:01:03;;;;;;;8.00;7.40;;;16.50;99.90;;;;;;10522760;28;20216;-85
2021/09/21 18:06:07;;;;;;;8.40;7.70;;;16.40;99.90;;;;;;10544824;28;20218;-85
2021/09/21 18:11:11;;;;;;;8.97;8.27;;;16.30;99.90;;;;;;10540511;28;20188;-85
2021/09/21 18:16:48;;;;;;;9.67;8.40;;;16.20;99.90;;;;;;10522349;28;20219;-84
2021/09/21 18:22:35;;;;;;;8.63;7.93;;;16.10;99.90;;;;;;10539397;28;20675;-84
2021/09/21 18:27:39;;;;;;;7.93;7.33;;;16.00;99.90;;;;;;10503043;28;20636;-84
2021/09/21 18:32:42;;;;;;;9.37;8.43;;;15.90;99.90;;;;;;10494900;28;20248;-85
2021/09/21 18:37:44;;;;;;;8.73;8.13;;;15.80;99.90;;;;;;10496735;28;20193;-84
2021/09/21 18:42:48;;;;;;;7.93;7.33;;;15.70;99.90;;;;;;10479893;28;20224;-84
2021/09/21 18:47:51;;;;;;;8.90;8.20;;;15.70;99.90;;;;;;10497376;28;20192;-84
2021/09/21 18:52:55;;;;;;;9.17;8.47;;;15.70;99.90;;;;;;10496450;28;20228;-84
2021/09/21 18:57:59;;;;;;;9.53;8.60;;;15.60;99.90;;;;;;10478506;28;20200;-84
2021/09/21 19:03:02;;;;;;;9.33;8.53;;;15.50;99.90;;;;;;10507464;28;20228;-85
2021/09/21 19:08:05;;;;;;;10.30;9.40;;;15.40;99.90;;;;;;10520006;28;20206;-84
2021/09/21 19:13:15;;;;;;;9.10;8.40;;;15.40;99.90;;;;;;10520554;28;20236;-85
2021/09/21 19:18:17;;;;;;;9.40;8.60;;;15.30;99.90;;;;;;10519889;28;20534;-85
2021/09/21 19:23:20;;;;;;;10.50;8.50;;;15.30;99.90;;;;;;10518774;28;20247;-85
2021/09/21 19:28:24;;;;;;;9.93;9.20;;;15.20;99.90;;;;;;10519412;28;20628;-84
2021/09/21 19:51:56;;;;;;;10.57;9.67;;;15.20;99.90;;;;;;10453670;28;20197;-85
2021/09/21 20:04:03;;;;;;;10.07;9.27;;;15.20;99.90;;;;;;10450537;28;20229;-85
2021/09/21 20:09:40;;;;;;;10.20;9.37;;;15.20;99.90;;;;;;10420163;28;20215;-85
2021/09/21 21:29:06;;;;;;;10.80;9.90;;;14.50;99.90;;;;;;10445190;28;20200;-86
2021/09/21 21:48:27;;;;;;;11.47;10.57;;;14.20;99.90;;;;;;10206983;28;20276;-83
